Gate, Oklahoma
Current Conditions -  °F | °C
As of 2:53 PM on Thursday 23 Oct 2014 (Local Time) from KGAG Reporting Station
Scattered Clouds Scattered Clouds  
Wind Chill: 78°   Ceiling: Unl
Heat Index: 79°   Visibility: 10mi
Dew Point: 60°   Wind: 10mph
Humidity: 54%   Direction: 160°SSE
Pressure: 30.05"   Gusts: 23mph
Location:  36.85°N, 100.06°W
Report Text: KGAG 231953Z AUTO 16009G20KT 040V210 10SM SCT035 26/16 A3005 RMK AO2 SLP154 T02560156
Loading
Personal Weather Stations






























Interactive Weather Map
Tropical Storm Tracking
New forecast layout! Learn more

10-Day Weather Forecast

Advertisements
Track Severe Weather on mobile